Latest Weather Observations for Jabiru

IDD60801

Issued at 8:41 am CST Thursday 9 February 2023 (issued every 10 minutes, with the page automatically refreshed every 10 minutes)

About weather observations | Map of weather stations | Latest weather observations for NT | Other Formats
Station Details ID: 014198 Name: JABIRU AIRPORT Lat: -12.66 Lon: 132.89 Height: 26.5 m
Data from the previous 72 hours. | See also: Recent months at Jabiru
Date/Time
CST
Temp
°C
App
Temp
°C
Dew
Point
°C
Rel
Hum
%
Delta-T
°C
Wind Press
QNH
hPa
Press
MSL
hPa
Rain since
9am
mm
Dir  Spd
km/h
Gust
km/h
Spd
kts
Gust
kts
09/08:35am 28.1 34.8 25.9 88 1.6 NNE 2 7 1 4 1004.8 1004.6 0.4
09/08:30am 27.7 34.5 25.5 88 1.6 CALM 0 7 0 4 1004.8 1004.6 0.4
09/08:00am 26.6 31.7 25.0 91 1.1 E 7 9 4 5 1004.8 1004.6 0.4
09/07:53am 26.5 31.6 24.9 91 1.1 ENE 7 9 4 5 1004.7 1004.5 0.4
09/07:30am 26.5 31.8 25.3 93 0.8 ESE 7 9 4 5 1004.3 1004.1 0.4
09/07:00am 26.0 32.5 25.0 94 0.7 CALM 0 0 0 0 1003.9 1003.7 0.4
09/06:59am 25.9 32.3 24.9 94 0.7 CALM 0 0 0 0 1003.9 1003.7 0.4
09/06:30am 25.9 31.5 24.9 94 0.7 E 4 6 2 3 1003.9 1003.7 0.4
09/06:00am 25.9 31.6 25.0 95 0.6 SE 4 7 2 4 1004.1 1003.9 0.4
09/05:55am 25.8 31.8 24.9 95 0.6 SE 2 6 1 3 1004.0 1003.8 0.4
09/05:42am 25.7 32.2 25.0 96 0.5 CALM 0 0 0 0 1003.9 1003.7 0.4
09/05:30am 25.5 31.0 24.6 95 0.6 SE 4 6 2 3 1003.8 1003.6 0.4
09/05:12am 25.5 30.6 24.6 95 0.6 SE 6 6 3 3 1003.7 1003.5 0.4
09/05:00am 25.5 30.6 24.6 95 0.6 SSE 6 7 3 4 1003.8 1003.6 0.4
09/04:30am 25.7 32.0 24.7 94 0.7 CALM 0 0 0 0 1003.4 1003.2 0.4
09/04:00am 25.7 32.0 24.7 94 0.7 CALM 0 0 0 0 1003.5 1003.3 0.4
09/03:30am 25.7 32.0 24.7 94 0.7 CALM 0 0 0 0 1003.5 1003.3 0.4
09/03:00am 25.7 30.8 24.1 91 1.1 NNW 4 6 2 3 1003.7 1003.5 0.4
09/02:30am 25.8 30.9 24.0 90 1.2 NNW 4 7 2 4 1004.0 1003.8 0.4
09/02:00am 25.9 31.6 23.8 88 1.4 CALM 0 0 0 0 1004.1 1003.9 0.4
09/01:30am 25.9 30.6 23.9 89 1.4 NW 6 7 3 4 1004.5 1004.3 0.4
09/01:00am 26.0 31.6 23.5 86 1.7 CALM 0 0 0 0 1004.6 1004.4 0.4
09/12:30am 26.2 30.4 23.5 85 1.9 W 7 9 4 5 1004.9 1004.7 0.4
09/12:00am 26.0 29.7 23.3 85 1.8 NNW 9 13 5 7 1005.0 1004.8 0.4
 
Date/Time
CST
Temp
°C
App
Temp
°C
Dew
Point
°C
Rel
Hum
%
Delta-T
°C
Wind Press
QNH
hPa
Press
MSL
hPa
Rain since
9am
mm
Dir  Spd
km/h
Gust
km/h
Spd
kts
Gust
kts
08/11:30pm 25.7 29.9 24.1 91 1.1 NNW 9 13 5 7 1004.8 1004.6 0.4
08/11:00pm 25.7 30.2 23.9 90 1.2 ENE 7 9 4 5 1004.9 1004.7 0.4
08/10:30pm 25.8 29.6 23.5 87 1.6 NNE 9 11 5 6 1005.0 1004.8 0.4
08/10:00pm 26.3 31.3 23.2 83 2.1 NW 2 6 1 3 1004.3 1004.1 0.4
08/09:30pm 26.6 30.4 23.5 83 2.1 NNW 9 13 5 7 1004.6 1004.4 0.4
08/09:00pm 26.7 31.3 24.7 89 1.4 NNE 9 13 5 7 1004.2 1004.0 0.0
08/08:30pm 27.1 33.0 24.7 87 1.7 NNE 2 7 1 4 1003.8 1003.6 0.0
08/08:00pm 27.1 31.6 24.0 83 2.1 WNW 7 9 4 5 1003.2 1003.0 0.0
08/07:43pm 27.3 31.1 23.5 80 2.6 ENE 9 15 5 8 1003.3 1003.1 0.0
08/07:33pm 27.8 30.9 23.6 78 2.9 E 13 17 7 9 1003.6 1003.4 0.0
08/07:32pm 27.8 30.9 23.6 78 2.9 E 13 17 7 9 1003.6 1003.4 0.0
08/07:30pm 27.9 30.9 23.3 76 3.2 E 13 17 7 9 1003.7 1003.5 0.0
08/07:00pm 30.0 34.6 26.0 79 2.8 NE 13 15 7 8 1003.5 1003.3 0.0
08/06:44pm 30.2 34.8 25.9 78 3.1 N 13 17 7 9 1002.6 1002.4 0.0
08/06:30pm 30.3 35.2 25.8 77 3.2 N 11 17 6 9 1002.9 1002.7 0.0
08/06:00pm 30.8 35.3 25.8 74 3.6 N 13 17 7 9 1002.7 1002.5 0.0
08/05:30pm 31.4 35.8 25.7 71 4.1 N 13 20 7 11 1002.2 1002.0 0.0
08/05:00pm 31.8 35.8 25.6 69 4.4 N 15 20 8 11 1002.2 1002.0 0.0
08/04:30pm 31.8 36.0 25.4 69 4.6 N 13 17 7 9 1002.3 1002.1 0.0
08/04:00pm 33.0 37.1 24.5 61 6.0 NW 11 15 6 8 1002.3 1002.1 0.0
08/03:30pm 33.2 36.6 24.1 59 6.4 WNW 13 17 7 9 1002.4 1002.2 0.0
08/03:00pm 33.0 36.7 23.3 56 6.7 WSW 9 13 5 7 1002.7 1002.5 0.0
08/02:30pm 33.2 35.9 22.9 54 7.1 WSW 13 19 7 10 1003.0 1002.8 0.0
08/02:00pm 33.8 37.1 23.8 56 7.0 WSW 13 20 7 11 1003.3 1003.1 0.0
08/01:30pm 33.1 37.4 24.3 60 6.2 W 9 17 5 9 1003.9 1003.7 0.0
08/01:00pm 32.2 36.2 23.7 61 5.9 W 9 17 5 9 1004.7 1004.5 0.0
08/12:30pm 32.2 36.0 24.0 62 5.7 WSW 11 17 6 9 1005.1 1004.9 0.0
08/12:00pm 31.7 35.0 23.8 63 5.5 W 13 20 7 11 1005.6 1005.4 0.0
08/11:30am 31.3 35.5 24.7 68 4.6 WSW 11 17 6 9 1005.7 1005.5 0.0
08/11:00am 30.8 33.7 24.4 68 4.5 SW 17 24 9 13 1005.6 1005.4 0.0
08/10:30am 30.6 33.8 25.0 72 4.0 SW 17 28 9 15 1005.9 1005.7 0.0
08/10:00am 29.8 33.3 24.9 75 3.4 WSW 15 22 8 12 1006.1 1005.9 0.0
08/09:30am 28.8 32.5 24.6 78 2.9 WSW 13 19 7 10 1006.4 1006.2 0.0
08/09:00am 28.2 32.3 24.6 81 2.5 WSW 11 17 6 9 1006.4 1006.2 0.0
08/08:30am 27.9 33.3 25.1 85 2.0 WSW 6 11 3 6 1006.5 1006.3 0.0
08/08:00am 27.4 32.7 25.0 87 1.7 SW 6 9 3 5 1006.4 1006.2 0.0
08/07:30am 27.2 33.4 25.2 89 1.4 WNW 2 6 1 3 1005.8 1005.6 0.0
08/07:00am 26.9 33.5 25.3 91 1.1 CALM 0 0 0 0 1005.4 1005.2 0.0
08/06:30am 27.1 32.6 25.3 90 1.3 W 6 7 3 4 1004.7 1004.5 0.0
08/06:00am 27.2 32.6 25.2 89 1.4 W 6 7 3 4 1004.8 1004.6 0.0
08/05:30am 27.2 32.9 25.6 91 1.1 NW 6 7 3 4 1004.6 1004.4 0.0
08/05:00am 27.4 32.8 25.2 88 1.5 W 6 7 3 4 1004.7 1004.5 0.0
08/04:30am 27.3 32.6 25.3 89 1.4 NW 7 9 4 5 1004.4 1004.2 0.0
08/04:00am 27.5 32.9 25.5 89 1.4 WNW 7 9 4 5 1004.3 1004.1 0.0
08/03:30am 27.7 33.3 25.5 88 1.6 NW 6 7 3 4 1004.3 1004.1 0.0
08/03:00am 27.8 33.3 25.6 88 1.6 NW 7 11 4 6 1004.4 1004.2 0.0
08/02:30am 28.1 33.5 25.5 86 1.8 WNW 7 9 4 5 1004.8 1004.6 0.0
08/02:00am 28.2 33.8 25.8 87 1.7 NW 7 9 4 5 1005.4 1005.2 0.0
08/01:30am 28.3 34.0 25.9 87 1.7 NW 7 9 4 5 1005.6 1005.4 0.0
08/01:00am 28.5 34.4 25.9 86 1.8 W 6 7 3 4 1005.8 1005.6 0.0
08/12:30am 28.6 33.9 25.8 85 2.0 WNW 9 11 5 6 1006.2 1006.0 0.0
08/12:16am 28.8 34.2 26.0 85 2.0 WNW 9 11 5 6 1006.3 1006.1 0.0
08/12:00am 28.8 34.1 25.8 84 2.1 WNW 9 11 5 6 1006.4 1006.2 0.0
 
Date/Time
CST
Temp
°C
App
Temp
°C
Dew
Point
°C
Rel
Hum
%
Delta-T
°C
Wind Press
QNH
hPa
Press
MSL
hPa
Rain since
9am
mm
Dir  Spd
km/h
Gust
km/h
Spd
kts
Gust
kts
07/11:30pm 29.0 34.5 26.2 85 2.0 NW 9 11 5 6 1006.4 1006.2 0.0
07/11:00pm 29.1 34.7 25.7 82 2.4 NW 7 11 4 6 1006.4 1006.2 0.0
07/10:30pm 29.2 34.7 25.6 81 2.6 NNW 7 11 4 6 1006.3 1006.1 0.0
07/10:00pm 29.4 34.9 25.6 80 2.7 NW 7 11 4 6 1006.2 1006.0 0.0
07/09:55pm 29.4 34.8 25.4 79 2.8 NW 7 11 4 6 1006.2 1006.0 0.0
07/09:30pm 29.6 34.2 25.4 78 3.0 NNW 11 19 6 10 1005.8 1005.6 0.0
07/09:00pm 30.2 34.2 25.0 73 3.7 NNW 13 20 7 11 1005.5 1005.3 0.0
07/08:30pm 30.3 35.2 25.8 77 3.2 N 11 15 6 8 1005.1 1004.9 0.0
07/08:00pm 31.0 36.0 26.0 74 3.6 N 11 17 6 9 1004.8 1004.6 0.0
07/07:30pm 31.4 36.9 26.2 74 3.7 N 9 13 5 7 1004.4 1004.2 0.0
07/07:00pm 32.5 35.9 23.4 58 6.3 NNW 11 15 6 8 1004.1 1003.9 0.0
07/06:30pm 33.2 36.6 24.1 59 6.4 NNW 13 20 7 11 1003.8 1003.6 0.0
07/06:00pm 34.3 36.0 21.0 45 9.0 NW 13 17 7 9 1003.5 1003.3 0.0
07/05:30pm 34.8 36.0 20.7 43 9.5 NW 15 20 8 11 1003.1 1002.9 0.0
07/05:00pm 35.2 37.2 21.5 45 9.3 NW 13 17 7 9 1002.9 1002.7 0.0
07/04:30pm 35.4 36.9 22.0 45 9.2 NW 17 24 9 13 1002.9 1002.7 0.0
07/04:00pm 35.1 37.6 21.0 43 9.5 WNW 9 13 5 7 1003.0 1002.8 0.0
07/03:30pm 35.5 37.0 20.6 41 10.1 W 13 19 7 10 1003.4 1003.2 0.0
07/03:00pm 35.0 37.3 21.3 45 9.3 WSW 11 20 6 11 1003.7 1003.5 0.0
07/02:30pm 34.9 36.9 20.8 43 9.5 W 11 19 6 10 1003.9 1003.7 0.0
07/02:00pm 34.7 37.6 23.1 51 8.0 W 13 20 7 11 1004.1 1003.9 0.0
07/01:30pm 33.9 36.3 22.3 50 8.0 WNW 13 24 7 13 1004.5 1004.3 0.0
07/01:00pm 33.9 36.8 21.0 47 8.7 SW 7 17 4 9 1005.1 1004.9 0.0
07/12:30pm 33.7 36.6 21.8 49 8.1 WNW 9 15 5 8 1005.5 1005.3 0.0
07/12:00pm 32.7 34.5 21.2 50 7.8 W 13 19 7 10 1005.9 1005.7 0.0
07/11:30am 32.2 35.5 23.2 59 6.2 WSW 11 17 6 9 1006.4 1006.2 0.0
07/11:00am 31.8 34.3 22.5 58 6.4 WSW 13 20 7 11 1006.8 1006.6 0.0
07/10:30am 31.4 34.5 23.5 63 5.5 WSW 13 19 7 10 1007.0 1006.8 0.0
07/10:00am 30.1 33.4 23.8 69 4.4 WSW 13 20 7 11 1007.4 1007.2 0.0
07/09:30am 29.6 33.1 24.2 72 3.8 WSW 13 17 7 9 1007.5 1007.3 0.0
07/09:00am 28.3 32.6 24.3 79 2.8 SW 9 13 5 7 1007.5 1007.3 0.0
07/08:30am 27.1 32.0 24.4 85 1.9 SW 6 9 3 5 1007.3 1007.1 0.0
07/08:00am 26.7 32.2 24.0 85 1.9 SW 2 7 1 4 1007.0 1006.8 0.0
07/07:30am 25.9 31.7 23.9 89 1.4 CALM 0 0 0 0 1006.8 1006.6 0.0
07/07:00am 25.5 31.2 23.7 90 1.2 CALM 0 0 0 0 1006.4 1006.2 0.0
07/06:30am 25.4 30.4 23.8 91 1.1 W 4 6 2 3 1006.2 1006.0 0.0
07/06:00am 26.1 30.8 24.0 88 1.4 WNW 6 7 3 4 1006.0 1005.8 0.0
07/05:30am 26.2 31.0 24.1 88 1.5 NNW 6 7 3 4 1005.8 1005.6 0.0
07/05:00am 26.3 32.3 24.2 88 1.4 CALM 0 0 0 0 1005.8 1005.6 0.0
07/04:30am 26.4 31.1 23.9 86 1.7 SW 6 9 3 5 1005.7 1005.5 0.0
07/04:00am 26.5 30.9 23.8 85 1.9 SSW 7 9 4 5 1005.7 1005.5 0.0
07/03:30am 26.9 31.9 24.5 87 1.7 SW 6 7 3 4 1005.7 1005.5 0.0
07/03:00am 27.5 33.2 24.4 83 2.2 SW 2 7 1 4 1005.9 1005.7 0.0
07/02:30am 27.5 32.0 24.6 84 2.0 WSW 9 13 5 7 1006.1 1005.9 0.0
07/02:00am 27.6 34.2 25.2 87 1.7 CALM 0 7 0 4 1006.2 1006.0 0.0
07/01:30am 27.9 34.4 25.1 85 2.0 CALM 0 0 0 0 1006.6 1006.4 0.0
07/01:00am 28.0 34.5 25.0 84 2.1 CALM 0 0 0 0 1007.0 1006.8 0.0
07/12:30am 28.2 34.4 24.6 81 2.5 CALM 0 0 0 0 1007.2 1007.0 0.0
07/12:00am 28.2 34.4 24.6 81 2.5 CALM 0 6 0 3 1007.4 1007.2 0.0
 
Date/Time
CST
Temp
°C
App
Temp
°C
Dew
Point
°C
Rel
Hum
%
Delta-T
°C
Wind Press
QNH
hPa
Press
MSL
hPa
Rain since
9am
mm
Dir  Spd
km/h
Gust
km/h
Spd
kts
Gust
kts
06/11:30pm 28.2 33.3 24.6 81 2.5 N 6 7 3 4 1007.4 1007.2 0.0
06/11:00pm 28.5 33.5 24.5 79 2.8 NNW 6 9 3 5 1007.2 1007.0 0.0
06/10:30pm 28.7 33.8 24.9 80 2.7 NW 7 9 4 5 1007.0 1006.8 0.0
06/10:00pm 28.8 33.9 24.6 78 2.9 N 6 7 3 4 1006.7 1006.5 0.0
06/09:30pm 28.9 34.0 24.7 78 2.9 NNE 6 9 3 5 1006.3 1006.1 0.0
06/09:00pm 28.9 34.0 24.9 79 2.8 NNE 7 9 4 5 1006.1 1005.9 0.0
06/08:30pm 29.1 34.2 24.9 78 2.9 N 7 9 4 5 1005.8 1005.6 0.0
06/08:00pm 29.4 34.8 23.8 72 3.9 NNW 2 7 1 4 1005.9 1005.7 0.0
06/07:30pm 29.6 34.4 24.2 72 3.8 NNW 6 7 3 4 1005.5 1005.3 0.0
06/07:00pm 30.3 34.3 23.7 68 4.6 NNW 9 13 5 7 1005.1 1004.9 0.0
06/06:30pm 31.3 35.3 24.4 66 4.8 NW 11 17 6 9 1004.9 1004.7 0.0
06/06:00pm 32.0 36.6 23.8 62 5.7 NNW 6 9 3 5 1004.7 1004.5 0.0
06/05:30pm 32.5 36.2 22.6 56 6.8 NNW 7 9 4 5 1004.5 1004.3 0.0
06/05:00pm 32.8 36.2 22.0 53 7.4 WNW 7 9 4 5 1004.3 1004.1 0.0
06/04:30pm 33.1 36.5 21.6 51 7.8 WSW 6 9 3 5 1004.3 1004.1 0.0
06/04:00pm 33.3 37.4 21.5 50 8.0 WSW 2 7 1 4 1004.4 1004.2 0.0
06/03:30pm 33.0 36.8 22.7 54 7.1 SSW 7 9 4 5 1004.7 1004.5 0.0
06/03:00pm 32.9 36.0 21.4 50 7.8 NW 7 9 4 5 1004.9 1004.7 0.0
06/02:30pm 33.2 35.9 21.4 50 8.0 SW 9 13 5 7 1004.9 1004.7 0.0
06/02:00pm 33.3 36.0 22.1 52 7.6 W 11 17 6 9 1005.4 1005.2 0.0
06/01:30pm 32.9 35.9 22.0 52 7.4 SW 9 13 5 7 1005.9 1005.7 0.0
06/01:00pm 33.1 36.6 22.2 52 7.4 SW 7 11 4 6 1006.3 1006.1 0.0
06/12:30pm 32.5 35.7 22.3 55 7.0 WSW 9 15 5 8 1006.7 1006.5 0.0
06/12:00pm 31.7 35.1 22.7 59 6.2 NW 9 15 5 8 1007.0 1006.8 0.0
06/11:30am 31.7 34.9 23.0 60 6.0 WSW 11 17 6 9 1007.3 1007.1 0.0
06/11:00am 31.5 34.9 24.1 65 5.2 WNW 13 20 7 11 1007.6 1007.4 0.0
06/10:30am 31.1 35.0 24.2 66 4.8 W 11 19 6 10 1008.1 1007.8 0.0
06/10:00am 29.9 33.8 23.6 69 4.4 SW 9 20 5 11 1008.4 1008.2 0.0
06/09:30am 29.2 32.9 23.9 73 3.7 W 11 17 6 9 1008.4 1008.2 0.0
06/09:00am 28.7 33.1 23.8 75 3.4 SSW 7 11 4 6 1008.3 1008.0 0.0

Other formats

Comma delimited format used in spreadsheet applications
http://www.bom.gov.au/fwo/IDD60801/IDD60801.94137.axf

JavaScript Object Notation format (JSON) in row-major order
http://www.bom.gov.au/fwo/IDD60801/IDD60801.94137.json

Data quality

Most of these data are generated automatically and are frequently updated. Quality checks on data are not normally performed. It is possible for incorrect values to appear. Refer to information at About Latest Weather Observations and please check the disclaimer before using these data.